createdAt,value
2018-10-17T00:00:41.277Z,0.00
2018-10-17T00:01:41.327Z,0.00
2018-10-17T00:02:41.353Z,0.00
2018-10-17T00:03:41.393Z,0.00
2018-10-17T00:04:41.433Z,0.00
2018-10-17T00:05:41.576Z,0.00
2018-10-17T00:06:41.512Z,0.00
2018-10-17T00:07:41.552Z,0.00
2018-10-17T00:08:41.593Z,0.00
2018-10-17T00:09:41.632Z,0.00
2018-10-17T00:10:41.671Z,0.00
2018-10-17T00:11:41.710Z,0.00
2018-10-17T00:12:41.752Z,0.00
2018-10-17T00:13:41.795Z,0.00
2018-10-17T00:14:41.834Z,0.00
2018-10-17T00:15:41.870Z,0.00
2018-10-17T00:16:41.910Z,0.00
2018-10-17T00:17:41.949Z,0.00
2018-10-17T00:18:41.988Z,0.00
2018-10-17T00:19:42.029Z,0.00
2018-10-17T00:20:42.069Z,0.00
2018-10-17T00:21:42.107Z,0.00
2018-10-17T00:22:42.153Z,0.00
2018-10-17T00:23:42.188Z,0.00
2018-10-17T00:24:42.230Z,0.00
2018-10-17T00:25:42.266Z,0.00
2018-10-17T00:26:42.315Z,0.00
2018-10-17T00:27:42.345Z,0.00
2018-10-17T00:28:42.384Z,0.00
2018-10-17T00:29:42.425Z,0.00
2018-10-17T00:30:42.464Z,0.00
2018-10-17T00:31:42.502Z,0.00
2018-10-17T00:32:42.546Z,0.00
2018-10-17T00:33:42.581Z,0.00
2018-10-17T00:34:42.623Z,0.00
2018-10-17T00:35:42.660Z,0.00
2018-10-17T00:36:42.702Z,0.00
2018-10-17T00:37:42.739Z,0.00
2018-10-17T00:38:42.779Z,0.00
2018-10-17T00:39:42.819Z,0.00
2018-10-17T00:40:42.858Z,0.00
2018-10-17T00:41:42.901Z,0.00
2018-10-17T00:42:42.937Z,0.00
2018-10-17T00:43:42.979Z,0.00
2018-10-17T00:44:43.017Z,0.00
2018-10-17T00:45:43.056Z,0.00
2018-10-17T00:46:43.096Z,0.00
2018-10-17T00:47:43.137Z,0.00
2018-10-17T00:48:43.176Z,0.00
2018-10-17T00:49:43.215Z,0.00
2018-10-17T00:50:43.254Z,0.00
2018-10-17T00:51:43.294Z,0.00
2018-10-17T00:52:43.333Z,0.00
2018-10-17T00:53:43.375Z,0.00
2018-10-17T00:54:43.412Z,0.00
2018-10-17T00:55:43.452Z,0.00
2018-10-17T00:56:43.494Z,0.00
2018-10-17T00:57:43.537Z,0.00
2018-10-17T00:58:43.578Z,0.00
2018-10-17T00:59:43.611Z,0.00
2018-10-17T01:00:43.658Z,0.00
2018-10-17T01:01:43.691Z,0.00
2018-10-17T01:02:43.731Z,0.00
2018-10-17T01:03:43.773Z,0.00
2018-10-17T01:04:43.808Z,0.00
2018-10-17T01:05:43.847Z,0.00
2018-10-17T01:06:43.933Z,0.00
2018-10-17T01:07:43.927Z,0.00
2018-10-17T01:08:43.970Z,0.00
2018-10-17T01:09:44.005Z,0.00
2018-10-17T01:10:44.055Z,0.00
2018-10-17T01:11:44.084Z,0.00
2018-10-17T01:12:44.132Z,0.00
2018-10-17T01:13:44.164Z,0.00
2018-10-17T01:14:44.203Z,0.00
2018-10-17T01:15:44.245Z,0.00
2018-10-17T01:16:44.287Z,0.00
2018-10-17T01:17:44.336Z,0.00
2018-10-17T01:18:44.362Z,0.00
2018-10-17T01:19:44.403Z,0.00
2018-10-17T01:20:44.441Z,0.00
2018-10-17T01:21:44.480Z,0.00
2018-10-17T01:22:44.521Z,0.00
2018-10-17T01:23:44.562Z,0.00
2018-10-17T01:24:44.615Z,0.00
2018-10-17T01:25:44.639Z,0.00
2018-10-17T01:26:44.680Z,0.00
2018-10-17T01:27:44.719Z,0.00
2018-10-17T01:28:44.757Z,0.00
2018-10-17T01:29:44.800Z,0.00
2018-10-17T01:30:44.837Z,0.00
2018-10-17T01:31:44.879Z,0.00
2018-10-17T01:32:44.918Z,0.00
2018-10-17T01:33:44.957Z,0.00
2018-10-17T01:34:44.995Z,0.00
2018-10-17T01:35:45.034Z,0.00
2018-10-17T01:36:45.076Z,0.00
2018-10-17T01:37:45.114Z,0.00
2018-10-17T01:38:45.153Z,0.00
2018-10-17T01:39:45.193Z,0.00
2018-10-17T01:40:45.235Z,0.00
2018-10-17T01:41:45.273Z,0.00
2018-10-17T01:42:45.313Z,0.00
2018-10-17T01:43:45.352Z,0.00
2018-10-17T01:44:45.392Z,0.00
2018-10-17T01:45:45.432Z,0.00
2018-10-17T01:46:45.474Z,0.00
2018-10-17T01:47:45.511Z,0.00
2018-10-17T01:48:45.555Z,0.00
2018-10-17T01:49:45.589Z,0.00
2018-10-17T01:50:45.629Z,0.00
2018-10-17T01:51:45.669Z,0.00
2018-10-17T01:52:45.709Z,0.00
2018-10-17T01:53:45.747Z,0.00
2018-10-17T01:54:45.790Z,0.00
2018-10-17T01:55:45.825Z,0.00
2018-10-17T01:56:45.868Z,0.00
2018-10-17T01:57:45.913Z,0.00
2018-10-17T01:58:45.945Z,0.00
2018-10-17T01:59:45.985Z,0.00
2018-10-17T02:00:46.023Z,0.00
2018-10-17T02:01:46.064Z,0.00
2018-10-17T02:02:46.102Z,0.00
2018-10-17T02:03:46.141Z,0.00
2018-10-17T02:04:46.181Z,0.00
2018-10-17T02:05:46.220Z,0.00
2018-10-17T02:06:46.259Z,0.00
2018-10-17T02:07:46.298Z,0.00
2018-10-17T02:08:46.347Z,0.00
2018-10-17T02:09:46.379Z,0.00
2018-10-17T02:10:46.416Z,0.00
2018-10-17T02:11:46.456Z,0.00
2018-10-17T02:12:46.496Z,0.00
2018-10-17T02:13:46.536Z,0.00
2018-10-17T02:14:46.583Z,0.00
2018-10-17T02:15:46.615Z,0.00
2018-10-17T02:16:46.654Z,0.00
2018-10-17T02:17:46.694Z,0.00
2018-10-17T02:18:46.734Z,0.00
2018-10-17T02:19:46.773Z,0.00
2018-10-17T02:20:46.814Z,0.00
2018-10-17T02:21:46.853Z,0.00
2018-10-17T02:22:46.891Z,0.00
2018-10-17T02:23:46.933Z,0.00
2018-10-17T02:24:46.972Z,0.00
2018-10-17T02:25:47.016Z,0.00
2018-10-17T02:26:47.049Z,0.00
2018-10-17T02:27:47.088Z,0.00
2018-10-17T02:28:47.127Z,0.00
2018-10-17T02:29:47.204Z,0.00
2018-10-17T02:30:47.211Z,0.00
2018-10-17T02:31:47.249Z,0.00
2018-10-17T02:32:47.286Z,0.00
2018-10-17T02:33:47.326Z,0.00
2018-10-17T02:34:47.364Z,0.00
2018-10-17T02:35:47.405Z,0.00
2018-10-17T02:36:47.444Z,0.00
2018-10-17T02:37:47.483Z,0.00
2018-10-17T02:38:47.521Z,0.00
2018-10-17T02:39:47.647Z,0.00
2018-10-17T02:40:47.602Z,0.00
2018-10-17T02:41:47.642Z,0.00
2018-10-17T02:42:47.680Z,0.00
2018-10-17T02:43:47.720Z,0.00
2018-10-17T02:44:47.762Z,0.00
2018-10-17T02:45:47.800Z,0.00
2018-10-17T02:46:47.841Z,0.00
2018-10-17T02:47:47.878Z,0.00
2018-10-17T02:48:47.933Z,0.00
2018-10-17T02:49:47.959Z,0.00
2018-10-17T02:50:47.995Z,0.00
2018-10-17T02:51:48.037Z,0.00
2018-10-17T02:52:48.080Z,0.00
2018-10-17T02:53:48.117Z,0.00
2018-10-17T02:54:48.155Z,0.00
2018-10-17T02:55:48.196Z,0.00
2018-10-17T02:56:48.235Z,0.00
2018-10-17T02:57:48.276Z,0.00
2018-10-17T02:58:48.315Z,0.00
2018-10-17T02:59:48.354Z,0.00
2018-10-17T03:00:48.395Z,0.00
2018-10-17T03:01:48.438Z,0.00
2018-10-17T03:02:48.472Z,0.00
2018-10-17T03:03:48.512Z,0.00
2018-10-17T03:04:48.553Z,0.00
2018-10-17T03:05:48.592Z,0.00
2018-10-17T03:06:48.632Z,0.00
2018-10-17T03:07:48.672Z,0.00
2018-10-17T03:08:48.716Z,0.00
2018-10-17T03:09:48.750Z,0.00
2018-10-17T03:10:48.789Z,0.00
2018-10-17T03:11:48.829Z,0.00
2018-10-17T03:12:48.870Z,0.00
2018-10-17T03:13:48.928Z,0.00
2018-10-17T03:14:48.946Z,0.00
2018-10-17T03:15:48.987Z,0.00
2018-10-17T03:16:49.026Z,0.00
2018-10-17T03:17:49.067Z,0.00
2018-10-17T03:18:49.106Z,0.00
2018-10-17T03:19:49.152Z,0.00
2018-10-17T03:20:49.193Z,0.00
2018-10-17T03:21:49.228Z,0.00
2018-10-17T03:22:49.267Z,0.00
2018-10-17T03:23:49.355Z,0.00
2018-10-17T03:24:49.345Z,0.00
2018-10-17T03:25:49.383Z,0.00
2018-10-17T03:26:49.425Z,0.00
2018-10-17T03:27:49.544Z,0.00
2018-10-17T03:28:49.502Z,0.00
2018-10-17T03:29:49.545Z,0.00
2018-10-17T03:30:49.582Z,0.00
2018-10-17T03:31:49.624Z,0.00
2018-10-17T03:32:49.663Z,0.00
2018-10-17T03:33:49.701Z,0.00
2018-10-17T03:34:49.740Z,0.00
2018-10-17T03:35:49.785Z,0.00
2018-10-17T03:36:49.824Z,0.00
2018-10-17T03:37:49.890Z,0.00
2018-10-17T03:38:49.898Z,0.00
2018-10-17T03:39:49.939Z,0.00
2018-10-17T03:40:49.978Z,0.00
2018-10-17T03:41:50.018Z,0.00
2018-10-17T03:42:50.057Z,0.00
2018-10-17T03:43:50.097Z,0.00
2018-10-17T03:44:50.144Z,0.00
2018-10-17T03:45:50.177Z,0.00
2018-10-17T03:46:50.216Z,0.00
2018-10-17T03:47:50.254Z,0.00
2018-10-17T03:48:50.300Z,0.00
2018-10-17T03:49:50.383Z,0.00
2018-10-17T03:50:50.376Z,0.00
2018-10-17T03:51:50.417Z,0.00
2018-10-17T03:52:50.454Z,0.00
2018-10-17T03:53:50.493Z,0.00
2018-10-17T03:54:50.532Z,0.00
2018-10-17T03:55:50.572Z,0.00
2018-10-17T03:56:50.621Z,0.00
2018-10-17T03:57:50.675Z,0.00
2018-10-17T03:58:50.703Z,0.00
2018-10-17T03:59:50.731Z,0.00
2018-10-17T04:00:50.776Z,0.00
2018-10-17T04:01:50.810Z,0.00
2018-10-17T04:02:50.898Z,0.00
2018-10-17T04:03:50.890Z,0.00
2018-10-17T04:04:50.933Z,0.00
2018-10-17T04:05:50.968Z,0.00
2018-10-17T04:06:51.008Z,0.00
2018-10-17T04:07:51.046Z,0.00
2018-10-17T04:08:51.088Z,0.00
2018-10-17T04:09:51.139Z,0.00
2018-10-17T04:10:51.213Z,0.00
2018-10-17T04:11:51.206Z,0.00
2018-10-17T04:12:51.304Z,0.00
2018-10-17T04:13:51.288Z,0.00
2018-10-17T04:14:51.325Z,0.00
2018-10-17T04:15:51.368Z,0.00
2018-10-17T04:16:51.433Z,0.00
2018-10-17T04:17:51.443Z,0.00
2018-10-17T04:18:51.503Z,0.00
2018-10-17T04:19:51.522Z,0.00
2018-10-17T04:20:51.571Z,0.00
2018-10-17T04:21:51.601Z,0.00
2018-10-17T04:22:51.646Z,0.00
2018-10-17T04:23:51.678Z,0.00
2018-10-17T04:24:51.765Z,0.00
2018-10-17T04:25:51.760Z,0.00
2018-10-17T04:26:51.797Z,0.00
2018-10-17T04:27:51.840Z,0.00
2018-10-17T04:28:51.887Z,0.00
2018-10-17T04:29:51.927Z,0.00
2018-10-17T04:30:51.964Z,0.00
2018-10-17T04:31:51.998Z,0.00
2018-10-17T04:32:52.038Z,0.00
2018-10-17T04:33:52.113Z,0.00
2018-10-17T04:34:52.142Z,0.00
2018-10-17T04:35:52.160Z,0.00
2018-10-17T04:36:52.197Z,0.00
2018-10-17T04:37:52.234Z,0.00
2018-10-17T04:38:52.271Z,0.00
2018-10-17T04:39:52.312Z,0.00
2018-10-17T04:40:52.358Z,0.00
2018-10-17T04:41:52.394Z,0.00
2018-10-17T04:42:52.445Z,0.00
2018-10-17T04:43:52.468Z,0.00
2018-10-17T04:44:52.508Z,0.00
2018-10-17T04:45:52.548Z,0.00
2018-10-17T04:46:52.593Z,0.00
2018-10-17T04:47:52.628Z,0.00
2018-10-17T04:48:52.669Z,0.00
2018-10-17T04:49:52.706Z,0.00
2018-10-17T04:50:52.746Z,0.00
2018-10-17T04:51:52.785Z,0.00
2018-10-17T04:52:52.875Z,0.00
2018-10-17T04:53:52.875Z,0.00
2018-10-17T04:54:52.933Z,0.00
2018-10-17T04:55:52.948Z,0.00
2018-10-17T04:56:52.986Z,0.00
2018-10-17T04:57:53.083Z,0.00
2018-10-17T04:58:53.078Z,0.00
2018-10-17T04:59:53.101Z,0.00
2018-10-17T05:00:53.178Z,0.00
2018-10-17T05:01:53.180Z,0.00
2018-10-17T05:02:53.217Z,0.00
2018-10-17T05:03:53.257Z,0.00
2018-10-17T05:04:53.312Z,0.00
2018-10-17T05:05:53.343Z,0.00
2018-10-17T05:06:53.614Z,0.00
2018-10-17T05:07:53.416Z,0.00
2018-10-17T05:08:53.453Z,0.00
2018-10-17T05:09:53.494Z,0.00
2018-10-17T05:10:53.572Z,0.00
2018-10-17T05:11:53.576Z,0.00
2018-10-17T05:12:53.637Z,0.00
2018-10-17T05:13:53.651Z,0.00
2018-10-17T05:14:53.690Z,0.00
2018-10-17T05:15:53.730Z,0.00
2018-10-17T05:16:53.782Z,0.00
2018-10-17T05:17:53.809Z,0.00
2018-10-17T05:18:53.894Z,0.00
2018-10-17T05:19:53.888Z,0.00
2018-10-17T05:20:53.928Z,0.00
2018-10-17T05:21:53.967Z,0.00
2018-10-17T05:22:54.012Z,0.00
2018-10-17T05:23:54.046Z,0.00
2018-10-17T05:24:54.101Z,0.00
2018-10-17T05:25:54.128Z,0.00
2018-10-17T05:26:54.164Z,0.00
2018-10-17T05:27:54.202Z,0.00
2018-10-17T05:28:54.303Z,0.00
2018-10-17T05:29:54.418Z,0.00
2018-10-17T05:30:54.329Z,0.00
2018-10-17T05:31:54.359Z,0.00
2018-10-17T05:32:54.400Z,0.00
2018-10-17T05:33:54.439Z,0.00
2018-10-17T05:34:54.486Z,0.00
2018-10-17T05:35:54.523Z,0.00
2018-10-17T05:36:54.613Z,0.00
2018-10-17T05:37:54.645Z,0.00
2018-10-17T05:38:54.636Z,0.00
2018-10-17T05:39:54.677Z,0.00
2018-10-17T05:40:54.768Z,0.00
2018-10-17T05:41:54.754Z,0.00
2018-10-17T05:42:54.836Z,0.00
2018-10-17T05:43:54.833Z,0.00
2018-10-17T05:44:54.874Z,0.00
2018-10-17T05:45:54.914Z,0.00
2018-10-17T05:46:55.021Z,0.00
2018-10-17T05:47:54.991Z,0.00
2018-10-17T05:48:55.056Z,0.00
2018-10-17T05:49:55.073Z,0.00
2018-10-17T05:50:55.109Z,5.63
2018-10-17T05:51:55.151Z,5.63
2018-10-17T05:52:55.220Z,5.63
2018-10-17T05:53:55.228Z,5.63
2018-10-17T05:54:55.321Z,5.63
2018-10-17T05:55:55.308Z,5.63
2018-10-17T05:56:55.347Z,5.63
2018-10-17T05:57:55.397Z,5.63
2018-10-17T05:58:55.479Z,5.63
2018-10-17T05:59:55.467Z,5.63
2018-10-17T06:00:55.582Z,5.63
2018-10-17T06:01:55.606Z,5.63
2018-10-17T06:02:55.588Z,11.25
2018-10-17T06:03:55.626Z,11.25
2018-10-17T06:04:55.686Z,11.25
2018-10-17T06:05:55.705Z,11.25
2018-10-17T06:06:55.793Z,11.25
2018-10-17T06:07:55.785Z,11.25
2018-10-17T06:08:55.823Z,11.25
2018-10-17T06:09:55.864Z,16.88
2018-10-17T06:10:55.930Z,16.88
2018-10-17T06:11:55.940Z,16.88
2018-10-17T06:12:55.991Z,16.88
2018-10-17T06:13:56.024Z,16.88
2018-10-17T06:14:56.059Z,16.88
2018-10-17T06:15:56.102Z,16.88
2018-10-17T06:16:56.274Z,22.50
2018-10-17T06:17:56.178Z,22.50
2018-10-17T06:18:56.251Z,22.50
2018-10-17T06:19:56.267Z,22.50
2018-10-17T06:20:56.298Z,22.50
2018-10-17T06:21:56.339Z,22.50
2018-10-17T06:22:56.440Z,22.50
2018-10-17T06:23:56.415Z,28.13
2018-10-17T06:24:56.469Z,28.13
2018-10-17T06:25:56.494Z,28.13
2018-10-17T06:26:56.535Z,28.13
2018-10-17T06:27:56.572Z,28.13
2018-10-17T06:28:56.669Z,28.13
2018-10-17T06:29:56.652Z,33.75
2018-10-17T06:30:56.724Z,33.75
2018-10-17T06:31:56.732Z,33.75
2018-10-17T06:32:56.771Z,33.75
2018-10-17T06:33:56.861Z,33.75
2018-10-17T06:34:56.877Z,39.38
2018-10-17T06:35:56.888Z,39.38
2018-10-17T06:36:56.940Z,39.38
2018-10-17T06:37:56.969Z,39.38
2018-10-17T06:38:57.007Z,45.00
2018-10-17T06:39:57.049Z,45.00
2018-10-17T06:40:57.131Z,45.00
2018-10-17T06:41:57.127Z,45.00
2018-10-17T06:42:57.175Z,45.00
2018-10-17T06:43:57.235Z,45.00
2018-10-17T06:44:57.246Z,50.63
2018-10-17T06:45:57.288Z,50.63
2018-10-17T06:46:57.360Z,50.63
2018-10-17T06:47:57.371Z,50.63
2018-10-17T06:48:57.425Z,50.63
2018-10-17T06:49:57.445Z,50.63
2018-10-17T06:50:57.486Z,56.25
2018-10-17T06:51:57.523Z,56.25
2018-10-17T06:52:57.612Z,56.25
2018-10-17T06:53:57.636Z,56.25
2018-10-17T06:54:57.680Z,56.25
2018-10-17T06:55:57.682Z,61.88
2018-10-17T06:56:57.720Z,61.88
2018-10-17T06:57:57.760Z,61.88
2018-10-17T06:58:57.802Z,61.88
2018-10-17T06:59:57.840Z,61.88
2018-10-17T07:00:57.911Z,67.50
2018-10-17T07:01:58.017Z,67.50
2018-10-17T07:02:57.959Z,67.50
2018-10-17T07:03:57.998Z,67.50
2018-10-17T07:04:58.092Z,67.50
2018-10-17T07:05:58.078Z,67.50
2018-10-17T07:06:58.122Z,73.13
2018-10-17T07:07:58.160Z,73.13
2018-10-17T07:08:58.198Z,73.13
2018-10-17T07:09:58.238Z,78.75
2018-10-17T07:10:58.304Z,78.75
2018-10-17T07:11:58.323Z,78.75
2018-10-17T07:12:58.363Z,84.38
2018-10-17T07:13:58.395Z,84.38
2018-10-17T07:14:58.435Z,84.38
2018-10-17T07:15:58.628Z,84.38
2018-10-17T07:16:58.535Z,84.38
2018-10-17T07:17:58.565Z,90.00
2018-10-17T07:18:58.612Z,90.00
2018-10-17T07:19:58.642Z,90.00
2018-10-17T07:20:58.683Z,90.00
2018-10-17T07:21:58.714Z,90.00
2018-10-17T07:22:58.797Z,95.63
2018-10-17T07:23:58.798Z,95.63
2018-10-17T07:24:58.866Z,95.63
2018-10-17T07:25:58.883Z,95.63
2018-10-17T07:26:58.914Z,101.25
2018-10-17T07:27:58.955Z,101.25
2018-10-17T07:28:59.165Z,101.25
2018-10-17T07:29:59.058Z,101.25
2018-10-17T07:30:59.107Z,106.88
2018-10-17T07:31:59.117Z,106.88
2018-10-17T07:32:59.159Z,112.50
2018-10-17T07:33:59.195Z,112.50
2018-10-17T07:34:59.233Z,112.50
2018-10-17T07:35:59.277Z,112.50
2018-10-17T07:36:59.314Z,112.50
2018-10-17T07:37:59.354Z,118.13
2018-10-17T07:38:59.395Z,118.13
2018-10-17T07:39:59.435Z,123.75
2018-10-17T07:40:59.474Z,123.75
2018-10-17T07:41:59.526Z,129.38
2018-10-17T07:42:59.558Z,129.38
2018-10-17T07:43:59.599Z,123.75
2018-10-17T07:44:59.645Z,123.75
2018-10-17T07:45:59.676Z,123.75
2018-10-17T07:46:59.717Z,123.75
2018-10-17T07:47:59.770Z,123.75
2018-10-17T07:48:59.797Z,123.75
2018-10-17T07:49:59.852Z,129.38
2018-10-17T07:50:59.879Z,129.38
2018-10-17T07:51:59.915Z,135.00
2018-10-17T07:53:00.019Z,140.63
2018-10-17T07:54:00.011Z,140.63
2018-10-17T07:55:00.037Z,140.63
2018-10-17T07:56:00.081Z,140.63
2018-10-17T07:57:00.125Z,140.63
2018-10-17T07:58:00.163Z,140.63
2018-10-17T07:59:00.197Z,140.63
2018-10-17T08:00:00.325Z,140.63
2018-10-17T08:01:00.278Z,140.63
2018-10-17T08:02:00.319Z,146.25
2018-10-17T08:03:00.358Z,146.25
2018-10-17T08:04:00.400Z,146.25
2018-10-17T08:05:00.439Z,151.88
2018-10-17T08:06:00.557Z,151.88
2018-10-17T08:07:00.519Z,157.50
2018-10-17T08:08:00.561Z,157.50
2018-10-17T08:09:00.600Z,163.13
2018-10-17T08:10:00.704Z,163.13
2018-10-17T08:11:00.685Z,163.13
2018-10-17T08:12:00.730Z,163.13
2018-10-17T08:13:00.762Z,163.13
2018-10-17T08:14:00.818Z,163.13
2018-10-17T08:15:00.842Z,163.13
2018-10-17T08:16:00.882Z,163.13
2018-10-17T08:17:00.938Z,163.13
2018-10-17T08:18:01.020Z,163.13
2018-10-17T08:19:01.012Z,168.75
2018-10-17T08:20:01.044Z,174.38
2018-10-17T08:21:01.086Z,174.38
2018-10-17T08:22:01.126Z,180.00
2018-10-17T08:23:01.165Z,180.00
2018-10-17T08:24:01.242Z,180.00
2018-10-17T08:25:01.247Z,180.00
2018-10-17T08:26:01.288Z,180.00
2018-10-17T08:27:01.328Z,185.63
2018-10-17T08:28:01.371Z,185.63
2018-10-17T08:29:01.415Z,191.25
2018-10-17T08:30:01.530Z,191.25
2018-10-17T08:31:01.497Z,191.25
2018-10-17T08:32:01.533Z,191.25
2018-10-17T08:33:01.573Z,196.88
2018-10-17T08:34:01.632Z,202.50
2018-10-17T08:35:01.657Z,208.13
2018-10-17T08:36:01.836Z,202.50
2018-10-17T08:37:02.111Z,202.50
2018-10-17T08:38:01.864Z,202.50
2018-10-17T08:39:01.817Z,208.13
2018-10-17T08:40:01.857Z,208.13
2018-10-17T08:41:02.073Z,208.13
2018-10-17T08:42:01.957Z,213.75
2018-10-17T08:43:01.980Z,213.75
2018-10-17T08:44:02.085Z,213.75
2018-10-17T08:45:02.182Z,213.75
2018-10-17T08:46:02.103Z,208.13
2018-10-17T08:47:02.142Z,208.13
2018-10-17T08:48:02.186Z,208.13
2018-10-17T08:49:02.235Z,213.75
2018-10-17T08:50:02.274Z,219.38
2018-10-17T08:51:02.355Z,213.75
2018-10-17T08:52:02.502Z,213.75
2018-10-17T08:53:02.408Z,213.75
2018-10-17T08:54:02.437Z,213.75
2018-10-17T08:55:02.473Z,219.38
2018-10-17T08:56:02.546Z,219.38
2018-10-17T08:57:02.563Z,219.38
2018-10-17T08:58:02.697Z,219.38
2018-10-17T08:59:02.636Z,225.00
2018-10-17T09:00:02.696Z,230.63
2018-10-17T09:01:02.730Z,230.63
2018-10-17T09:02:02.843Z,230.63
2018-10-17T09:03:02.802Z,219.38
2018-10-17T09:04:02.843Z,225.00
2018-10-17T09:05:02.885Z,225.00
2018-10-17T09:06:03.006Z,225.00
2018-10-17T09:07:02.967Z,225.00
2018-10-17T09:08:03.033Z,225.00
2018-10-17T09:09:03.052Z,225.00
2018-10-17T09:10:03.094Z,230.63
2018-10-17T09:11:03.132Z,236.25
2018-10-17T09:12:03.199Z,236.25
2018-10-17T09:13:03.216Z,241.88
2018-10-17T09:14:03.311Z,241.88
2018-10-17T09:15:03.300Z,241.88
2018-10-17T09:16:03.348Z,247.50
2018-10-17T09:17:03.393Z,253.13
2018-10-17T09:18:03.453Z,258.75
2018-10-17T09:19:03.471Z,253.13
2018-10-17T09:20:03.732Z,241.88
2018-10-17T09:21:03.872Z,236.25
2018-10-17T09:22:03.975Z,230.63
2018-10-17T09:23:03.634Z,230.63
2018-10-17T09:24:03.746Z,236.25
2018-10-17T09:25:03.908Z,247.50
2018-10-17T09:26:03.760Z,241.88
2018-10-17T09:27:03.799Z,230.63
2018-10-17T09:28:03.898Z,230.63
2018-10-17T09:29:03.886Z,236.25
2018-10-17T09:30:04.029Z,236.25
2018-10-17T09:31:03.966Z,236.25
2018-10-17T09:32:04.010Z,236.25
2018-10-17T09:33:04.050Z,241.88
2018-10-17T09:34:04.171Z,241.88
2018-10-17T09:35:04.239Z,236.25
2018-10-17T09:36:04.181Z,236.25
2018-10-17T09:37:04.216Z,230.63
2018-10-17T09:38:04.258Z,225.00
2018-10-17T09:39:04.300Z,225.00
2018-10-17T09:40:04.461Z,219.38
2018-10-17T09:41:04.385Z,213.75
2018-10-17T09:42:04.432Z,208.13
2018-10-17T09:43:04.529Z,208.13
2018-10-17T09:44:04.528Z,196.88
2018-10-17T09:45:04.554Z,180.00
2018-10-17T09:46:04.686Z,168.75
2018-10-17T09:47:04.651Z,168.75
2018-10-17T09:48:04.705Z,168.75
2018-10-17T09:49:04.719Z,163.13
2018-10-17T09:50:04.763Z,151.88
2018-10-17T09:51:04.803Z,146.25
2018-10-17T09:52:04.907Z,146.25
2018-10-17T09:53:04.932Z,146.25
2018-10-17T09:54:04.992Z,146.25
2018-10-17T09:55:04.971Z,146.25
2018-10-17T09:56:05.014Z,146.25
2018-10-17T09:57:05.055Z,140.63
2018-10-17T09:58:05.134Z,140.63
2018-10-17T09:59:05.139Z,135.00
2018-10-17T10:00:05.268Z,135.00
2018-10-17T10:01:05.223Z,135.00
2018-10-17T10:02:05.312Z,135.00
2018-10-17T10:03:05.305Z,129.38
2018-10-17T10:04:05.422Z,129.38
2018-10-17T10:05:05.402Z,129.38
2018-10-17T10:06:05.461Z,129.38
2018-10-17T10:07:05.473Z,129.38
2018-10-17T10:08:05.516Z,129.38
2018-10-17T10:09:05.557Z,129.38
2018-10-17T10:10:05.622Z,129.38
2018-10-17T10:11:05.707Z,129.38
2018-10-17T10:12:05.711Z,129.38
2018-10-17T10:13:05.721Z,129.38
2018-10-17T10:14:05.765Z,129.38
2018-10-17T10:15:05.808Z,129.38
2018-10-17T10:16:05.944Z,129.38
2018-10-17T10:17:05.965Z,129.38
2018-10-17T10:18:05.938Z,129.38
2018-10-17T10:19:05.971Z,129.38
2018-10-17T10:20:06.018Z,129.38
2018-10-17T10:21:06.065Z,135.00
2018-10-17T10:22:06.159Z,135.00
2018-10-17T10:23:06.213Z,135.00
2018-10-17T10:24:06.214Z,135.00
2018-10-17T10:25:06.241Z,135.00
2018-10-17T10:26:06.262Z,135.00
2018-10-17T10:27:06.306Z,135.00
2018-10-17T10:28:06.420Z,135.00
2018-10-17T10:29:06.388Z,135.00
2018-10-17T10:30:06.431Z,135.00
2018-10-17T10:31:06.468Z,135.00
2018-10-17T10:32:06.511Z,135.00
2018-10-17T10:33:06.652Z,135.00
2018-10-17T10:34:06.685Z,135.00
2018-10-17T10:35:06.634Z,135.00
2018-10-17T10:36:06.691Z,140.63
2018-10-17T10:37:06.718Z,140.63
2018-10-17T10:38:06.766Z,140.63
2018-10-17T10:39:06.801Z,140.63
2018-10-17T10:40:06.912Z,140.63
2018-10-17T10:41:06.885Z,140.63
2018-10-17T10:42:07.016Z,140.63
2018-10-17T10:43:06.967Z,140.63
2018-10-17T10:44:07.033Z,135.00
2018-10-17T10:45:07.070Z,135.00
2018-10-17T10:46:07.090Z,129.38
2018-10-17T10:47:07.235Z,129.38
2018-10-17T10:48:07.241Z,129.38
2018-10-17T10:49:07.279Z,129.38
2018-10-17T10:50:07.313Z,129.38
2018-10-17T10:51:07.356Z,129.38
2018-10-17T10:52:07.597Z,129.38
2018-10-17T10:53:07.451Z,129.38
2018-10-17T10:54:07.477Z,129.38
2018-10-17T10:55:07.467Z,129.38
2018-10-17T10:56:07.534Z,129.38
2018-10-17T10:57:07.571Z,129.38
2018-10-17T10:58:07.740Z,129.38
2018-10-17T10:59:07.673Z,129.38
2018-10-17T11:00:07.710Z,129.38
2018-10-17T11:01:07.717Z,135.00
2018-10-17T11:02:07.779Z,135.00
2018-10-17T11:03:07.806Z,135.00
2018-10-17T11:04:07.844Z,135.00
2018-10-17T11:05:08.020Z,135.00
2018-10-17T11:06:07.927Z,135.00
2018-10-17T11:07:07.967Z,135.00
2018-10-17T11:08:08.052Z,129.38
2018-10-17T11:09:08.055Z,129.38
2018-10-17T11:10:08.099Z,129.38
2018-10-17T11:11:08.190Z,129.38
2018-10-17T11:12:08.185Z,135.00
2018-10-17T11:13:08.222Z,135.00
2018-10-17T11:14:08.403Z,135.00
2018-10-17T11:15:08.402Z,135.00
2018-10-17T11:16:08.347Z,135.00
2018-10-17T11:17:08.397Z,135.00
2018-10-17T11:18:08.432Z,135.00
2018-10-17T11:19:08.472Z,140.63
2018-10-17T11:20:08.514Z,140.63
2018-10-17T11:21:08.575Z,140.63
2018-10-17T11:22:08.605Z,140.63
2018-10-17T11:23:08.687Z,140.63
2018-10-17T11:24:08.685Z,140.63
2018-10-17T11:25:08.738Z,140.63
2018-10-17T11:26:09.266Z,140.63
2018-10-17T11:27:09.188Z,140.63
2018-10-17T11:28:08.852Z,140.63
2018-10-17T11:29:08.928Z,140.63
2018-10-17T11:30:08.945Z,140.63
2018-10-17T11:31:08.983Z,140.63
2018-10-17T11:32:09.022Z,135.00
2018-10-17T11:33:09.118Z,135.00
2018-10-17T11:34:09.116Z,135.00
2018-10-17T11:35:09.211Z,135.00
2018-10-17T11:36:09.245Z,140.63
2018-10-17T11:37:09.234Z,140.63
2018-10-17T11:38:09.276Z,140.63
2018-10-17T11:39:09.384Z,140.63
2018-10-17T11:40:09.429Z,140.63
2018-10-17T11:41:09.510Z,140.63
2018-10-17T11:42:09.448Z,140.63
2018-10-17T11:43:09.498Z,140.63
2018-10-17T11:44:09.531Z,140.63
2018-10-17T11:45:09.645Z,146.25
2018-10-17T11:46:09.619Z,146.25
2018-10-17T11:47:09.740Z,146.25
2018-10-17T11:48:09.704Z,151.88
2018-10-17T11:49:09.745Z,151.88
2018-10-17T11:50:09.789Z,157.50
2018-10-17T11:51:09.923Z,157.50
2018-10-17T11:52:09.883Z,157.50
2018-10-17T11:53:09.995Z,157.50
2018-10-17T11:54:09.961Z,157.50
2018-10-17T11:55:10.002Z,163.13
2018-10-17T11:56:10.047Z,163.13
2018-10-17T11:57:10.324Z,163.13
2018-10-17T11:58:10.131Z,163.13
2018-10-17T11:59:10.208Z,168.75
2018-10-17T12:00:10.219Z,168.75
2018-10-17T12:01:10.262Z,168.75
2018-10-17T12:02:10.304Z,168.75
2018-10-17T12:03:10.433Z,163.13
2018-10-17T12:04:10.602Z,157.50
2018-10-17T12:05:10.768Z,157.50
2018-10-17T12:06:10.497Z,146.25
2018-10-17T12:07:10.527Z,146.25
2018-10-17T12:08:10.562Z,140.63
2018-10-17T12:09:10.698Z,140.63
2018-10-17T12:10:10.653Z,140.63
2018-10-17T12:11:10.740Z,140.63
2018-10-17T12:12:10.793Z,140.63
2018-10-17T12:13:10.782Z,140.63
2018-10-17T12:14:10.821Z,140.63
2018-10-17T12:15:10.914Z,140.63
2018-10-17T12:16:10.907Z,140.63
2018-10-17T12:17:10.953Z,146.25
2018-10-17T12:18:11.126Z,146.25
2018-10-17T12:19:11.070Z,146.25
2018-10-17T12:20:11.083Z,151.88
2018-10-17T12:21:11.284Z,151.88
2018-10-17T12:22:11.172Z,151.88
2018-10-17T12:23:11.211Z,151.88
2018-10-17T12:24:11.351Z,151.88
2018-10-17T12:25:11.298Z,151.88
2018-10-17T12:26:11.342Z,146.25
2018-10-17T12:27:11.434Z,146.25
2018-10-17T12:28:11.692Z,140.63
2018-10-17T12:29:11.473Z,140.63
2018-10-17T12:30:11.657Z,140.63
2018-10-17T12:31:11.557Z,140.63
2018-10-17T12:32:11.610Z,135.00
2018-10-17T12:33:11.726Z,135.00
2018-10-17T12:34:11.690Z,135.00
2018-10-17T12:35:11.880Z,135.00
2018-10-17T12:36:11.776Z,135.00
2018-10-17T12:37:11.820Z,140.63
2018-10-17T12:38:11.864Z,140.63
2018-10-17T12:39:11.943Z,140.63
2018-10-17T12:40:12.111Z,140.63
2018-10-17T12:41:12.105Z,146.25
2018-10-17T12:42:12.039Z,146.25
2018-10-17T12:43:12.085Z,151.88
2018-10-17T12:44:12.211Z,151.88
2018-10-17T12:45:12.231Z,151.88
2018-10-17T12:46:12.218Z,151.88
2018-10-17T12:47:12.320Z,146.25
2018-10-17T12:48:12.300Z,146.25
2018-10-17T12:49:12.367Z,140.63
2018-10-17T12:50:12.486Z,129.38
2018-10-17T12:51:12.431Z,123.75
2018-10-17T12:52:12.604Z,123.75
2018-10-17T12:53:12.580Z,118.13
2018-10-17T12:54:12.562Z,118.13